Time;durP1;ratioP1;P1;durP2;ratioP2;P2;SDS_P1;SDS_P2;PMS_P1;PMS_P2;Temp;Humidity;BMP_temperature;BMP_pressure;BME280_temperature;BME280_humidity;BME280_pressure;Samples;Min_cycle;Max_cycle;Signal;HPM_P1;HPM_P2
2022/01/10 00:01:07;;;;;;;8.80;3.20;;;7.40;99.90;;;;;;10528537;28;20020;-68
2022/01/10 00:06:08;;;;;;;9.45;3.90;;;7.40;99.90;;;;;;10532186;28;20052;-68
2022/01/10 00:11:09;;;;;;;8.90;3.75;;;7.40;99.90;;;;;;10536253;28;20060;-67
2022/01/10 00:16:09;;;;;;;10.05;3.75;;;7.40;99.90;;;;;;10527025;28;20036;-67
2022/01/10 00:21:10;;;;;;;6.55;3.38;;;7.30;99.90;;;;;;10542998;28;20498;-68
2022/01/10 00:26:11;;;;;;;8.50;4.32;;;7.30;99.90;;;;;;10527747;28;20040;-67
2022/01/10 00:31:12;;;;;;;5.90;3.42;;;7.30;99.90;;;;;;10525883;28;20036;-67
2022/01/10 00:36:12;;;;;;;11.23;4.40;;;7.30;99.90;;;;;;10528891;28;20027;-68
2022/01/10 00:41:13;;;;;;;9.77;4.10;;;7.30;99.90;;;;;;10520503;28;20093;-67
2022/01/10 00:46:14;;;;;;;11.48;4.22;;;7.30;99.90;;;;;;10528466;28;20097;-67
2022/01/10 00:51:15;;;;;;;8.57;4.40;;;7.30;99.90;;;;;;10523868;28;20595;-66
2022/01/10 00:56:17;;;;;;;10.60;4.18;;;7.20;99.90;;;;;;10528449;28;20024;-67
2022/01/10 01:01:18;;;;;;;7.38;4.10;;;7.20;99.90;;;;;;10528680;28;20347;-66
2022/01/10 01:06:19;;;;;;;13.13;4.80;;;7.20;99.90;;;;;;10519099;28;20028;-67
2022/01/10 01:16:43;;;;;;;;;;;7.10;99.90;;;;;;10520338;28;20630;-68
2022/01/10 01:27:04;;;;;;;11.48;4.43;;;7.10;99.90;;;;;;10515611;28;20033;-67
2022/01/10 01:32:05;;;;;;;12.32;5.18;;;7.10;99.90;;;;;;10517869;28;20028;-66
2022/01/10 01:37:09;;;;;;;8.93;4.80;;;7.10;99.90;;;;;;10526299;28;20028;-67
2022/01/10 01:42:55;;;;;;;11.20;5.10;;;7.10;99.90;;;;;;10517010;28;20081;-68
2022/01/10 01:47:30;;;;;;;11.80;5.40;;;7.00;99.90;;;;;;10504814;28;20124;-67
2022/01/10 01:52:31;;;;;;;10.70;4.90;;;7.10;99.90;;;;;;10522108;28;20028;-68
2022/01/10 01:57:32;;;;;;;13.25;5.55;;;7.00;99.90;;;;;;10525907;28;20478;-68
2022/01/10 02:02:32;;;;;;;14.27;5.75;;;7.00;99.90;;;;;;10525904;28;20028;-68
2022/01/10 02:07:33;;;;;;;10.65;4.80;;;6.90;99.90;;;;;;10526420;28;20438;-69
2022/01/10 02:12:34;;;;;;;10.73;5.47;;;6.90;99.90;;;;;;10525975;28;20504;-68
2022/01/10 02:17:38;;;;;;;9.13;4.90;;;6.90;99.90;;;;;;10524890;28;20406;-65
2022/01/10 02:22:39;;;;;;;11.60;5.32;;;6.90;99.80;;;;;;10529932;28;20027;-68
2022/01/10 02:27:40;;;;;;;11.35;5.32;;;6.90;99.80;;;;;;10524224;28;20040;-62
2022/01/10 02:32:41;;;;;;;10.07;5.32;;;6.90;99.80;;;;;;10520172;28;20306;-67
2022/01/10 02:37:42;;;;;;;15.40;6.32;;;6.80;99.70;;;;;;10533530;28;20054;-65
2022/01/10 02:42:43;;;;;;;12.50;6.15;;;7.10;99.80;;;;;;10524515;28;20053;-67
2022/01/10 02:47:44;;;;;;;12.35;5.93;;;6.80;99.70;;;;;;10533560;28;20101;-65
2022/01/10 02:52:45;;;;;;;12.10;5.03;;;6.80;99.70;;;;;;10528481;28;20027;-68
2022/01/10 02:57:46;;;;;;;11.23;5.35;;;6.80;99.90;;;;;;10533496;28;20371;-65
2022/01/10 03:02:51;;;;;;;12.10;5.25;;;6.80;99.60;;;;;;10523544;28;20017;-67
2022/01/10 03:07:55;;;;;;;9.27;5.22;;;6.80;99.60;;;;;;10533568;28;20032;-68
2022/01/10 03:13:00;;;;;;;13.75;6.00;;;7.10;99.70;;;;;;10532353;28;20024;-65
2022/01/10 03:18:01;;;;;;;10.45;5.32;;;6.70;99.50;;;;;;10524506;28;20060;-65
2022/01/10 03:23:02;;;;;;;11.88;5.07;;;6.70;99.50;;;;;;10533838;28;20119;-68
2022/01/10 03:28:03;;;;;;;11.38;6.10;;;6.70;99.50;;;;;;10531451;28;20477;-64
2022/01/10 03:33:04;;;;;;;11.07;5.32;;;6.70;99.50;;;;;;10525736;28;20017;-66
2022/01/10 03:38:05;;;;;;;11.18;5.30;;;6.70;99.50;;;;;;10530127;28;20089;-68
2022/01/10 03:43:06;;;;;;;10.50;5.20;;;6.60;99.40;;;;;;10526507;28;20527;-64
2022/01/10 03:48:07;;;;;;;10.40;5.47;;;6.60;99.40;;;;;;10529303;28;20541;-68
2022/01/10 03:53:07;;;;;;;11.43;5.63;;;6.60;99.40;;;;;;10524997;28;20067;-67
2022/01/10 03:58:08;;;;;;;14.70;5.78;;;6.70;99.40;;;;;;10529799;28;20067;-68
2022/01/10 04:03:09;;;;;;;8.25;4.63;;;6.60;99.40;;;;;;10529461;28;20539;-67
2022/01/10 04:08:12;;;;;;;9.52;5.05;;;6.60;99.30;;;;;;10529187;28;20119;-68
2022/01/10 04:13:12;;;;;;;11.43;5.53;;;6.50;99.30;;;;;;10520570;28;20052;-66
2022/01/10 04:18:14;;;;;;;7.75;4.75;;;6.50;99.30;;;;;;10484108;28;20142;-68
2022/01/10 04:23:16;;;;;;;15.50;5.47;;;6.50;99.30;;;;;;10490045;28;20025;-65
2022/01/10 04:28:18;;;;;;;11.32;5.18;;;6.50;99.20;;;;;;10488159;28;20399;-64
2022/01/10 04:33:20;;;;;;;14.18;5.65;;;6.50;99.20;;;;;;10483233;28;20025;-67
2022/01/10 04:38:21;;;;;;;10.93;4.90;;;6.40;99.10;;;;;;10487147;28;20032;-67
2022/01/10 04:43:22;;;;;;;10.05;5.25;;;6.70;99.20;;;;;;10478912;28;20028;-66
2022/01/10 04:48:23;;;;;;;8.60;4.95;;;6.40;99.10;;;;;;10483402;28;20044;-65
2022/01/10 04:53:24;;;;;;;16.15;5.10;;;6.40;99.10;;;;;;10483161;28;20017;-66
2022/01/10 04:58:24;;;;;;;11.35;4.95;;;6.40;99.10;;;;;;10479587;28;20032;-65
2022/01/10 05:03:25;;;;;;;9.95;4.40;;;6.40;99.30;;;;;;10464604;28;20024;-69
2022/01/10 05:08:26;;;;;;;9.35;4.75;;;6.40;99.10;;;;;;10485887;28;20048;-65
2022/01/10 05:13:28;;;;;;;9.70;5.30;;;6.60;99.20;;;;;;10485569;28;20056;-64
2022/01/10 05:18:28;;;;;;;8.15;4.72;;;6.40;99.10;;;;;;10505230;28;20044;-64
2022/01/10 05:23:29;;;;;;;7.82;4.72;;;6.30;99.00;;;;;;10528661;28;20024;-67
2022/01/10 05:28:30;;;;;;;7.35;4.45;;;6.30;99.00;;;;;;10526373;28;20036;-65
2022/01/10 05:33:31;;;;;;;7.00;4.30;;;6.40;99.00;;;;;;10497876;28;20020;-68
2022/01/10 05:38:32;;;;;;;10.00;4.22;;;6.40;99.00;;;;;;10526433;28;20349;-64
2022/01/10 05:43:33;;;;;;;6.85;4.80;;;6.40;98.90;;;;;;10508293;28;20069;-65
2022/01/10 05:48:35;;;;;;;9.05;4.70;;;6.30;98.90;;;;;;10523862;28;20055;-62
2022/01/10 05:53:36;;;;;;;8.07;4.40;;;6.30;99.00;;;;;;10525200;28;20107;-64
2022/01/10 05:58:37;;;;;;;7.38;3.90;;;6.20;98.90;;;;;;10526184;28;20043;-64
2022/01/10 06:03:37;;;;;;;8.60;4.68;;;6.20;98.90;;;;;;10526315;28;20019;-64
2022/01/10 06:08:38;;;;;;;7.50;4.72;;;6.20;98.80;;;;;;10512120;28;20039;-65
2022/01/10 06:13:39;;;;;;;8.30;5.05;;;6.20;98.80;;;;;;10534993;28;20039;-64
2022/01/10 06:18:40;;;;;;;9.27;4.40;;;6.20;98.80;;;;;;10537719;28;20044;-65
2022/01/10 06:23:40;;;;;;;8.13;4.95;;;6.20;98.80;;;;;;10536264;28;20028;-64
2022/01/10 06:28:41;;;;;;;8.65;4.45;;;6.20;98.80;;;;;;10535479;28;20046;-66
2022/01/10 06:33:42;;;;;;;8.63;4.70;;;6.10;98.70;;;;;;10519189;28;20035;-65
2022/01/10 06:38:43;;;;;;;8.63;4.60;;;6.10;98.70;;;;;;10530879;28;20032;-65
2022/01/10 06:43:44;;;;;;;7.65;4.57;;;6.10;98.70;;;;;;10524774;28;20024;-65
2022/01/10 06:48:45;;;;;;;9.93;4.97;;;6.10;98.70;;;;;;10528990;28;20036;-65
2022/01/10 06:53:45;;;;;;;9.65;5.25;;;6.10;98.70;;;;;;10532776;28;20513;-65
2022/01/10 06:58:46;;;;;;;10.02;4.95;;;6.10;98.60;;;;;;10530844;28;20028;-63
2022/01/10 07:03:47;;;;;;;7.97;4.45;;;6.10;98.60;;;;;;10531293;28;20059;-65
2022/01/10 07:08:47;;;;;;;9.57;4.97;;;6.10;98.60;;;;;;10534511;28;20036;-66
2022/01/10 07:13:48;;;;;;;12.68;5.75;;;6.10;98.60;;;;;;10532053;28;20047;-65
2022/01/10 07:18:49;;;;;;;8.45;5.15;;;7.10;98.80;;;;;;10533958;28;20040;-63
2022/01/10 07:23:50;;;;;;;10.32;5.30;;;6.00;98.50;;;;;;10532062;28;20081;-65
2022/01/10 07:28:51;;;;;;;13.40;5.15;;;6.00;98.50;;;;;;10531597;28;20486;-63
2022/01/10 07:33:52;;;;;;;7.88;5.22;;;6.10;98.50;;;;;;10528631;28;20028;-65
2022/01/10 07:38:53;;;;;;;8.40;5.10;;;6.00;98.40;;;;;;10535850;28;20038;-65
2022/01/10 07:43:56;;;;;;;8.90;5.55;;;6.30;98.50;;;;;;10520841;28;20026;-64
2022/01/10 07:48:57;;;;;;;9.00;5.20;;;6.00;98.40;;;;;;10527072;28;20487;-64
2022/01/10 07:53:59;;;;;;;11.98;5.43;;;6.10;98.40;;;;;;10507260;28;20887;-65
2022/01/10 07:59:00;;;;;;;8.18;5.68;;;6.00;98.40;;;;;;10523570;28;20024;-65
2022/01/10 08:04:01;;;;;;;10.45;5.65;;;6.00;98.40;;;;;;10525967;28;20036;-63
2022/01/10 08:09:02;;;;;;;8.95;4.90;;;6.00;98.30;;;;;;10531638;28;20299;-66
2022/01/10 08:14:05;;;;;;;10.90;5.63;;;6.00;98.30;;;;;;10523994;28;20054;-63
2022/01/10 08:19:06;;;;;;;10.85;5.57;;;6.00;98.30;;;;;;10533257;28;20087;-65
2022/01/10 08:24:06;;;;;;;7.35;5.50;;;6.00;98.30;;;;;;10511985;28;20487;-66
2022/01/10 08:29:08;;;;;;;8.65;5.35;;;6.00;98.30;;;;;;10508722;28;20038;-65
2022/01/10 08:34:08;;;;;;;10.23;5.63;;;6.00;98.30;;;;;;10501727;28;20389;-66
2022/01/10 08:39:09;;;;;;;9.02;5.45;;;6.00;98.20;;;;;;10521262;28;20025;-65
2022/01/10 08:44:10;;;;;;;9.15;5.68;;;6.00;98.20;;;;;;10504476;28;20499;-64
2022/01/10 08:49:12;;;;;;;10.52;5.80;;;6.00;98.20;;;;;;10508941;28;20081;-65
2022/01/10 08:54:13;;;;;;;9.55;6.00;;;6.00;98.20;;;;;;10518489;28;20092;-65
2022/01/10 08:59:14;;;;;;;10.35;6.30;;;6.00;98.20;;;;;;10524034;28;20093;-64
2022/01/10 09:04:16;;;;;;;10.07;5.70;;;6.10;98.20;;;;;;10502305;28;20111;-64
2022/01/10 09:09:18;;;;;;;10.73;5.88;;;6.10;98.10;;;;;;10526694;28;20054;-64
2022/01/10 09:14:19;;;;;;;12.25;6.57;;;6.10;98.10;;;;;;10526421;28;20081;-65
2022/01/10 09:19:19;;;;;;;8.48;5.97;;;6.20;98.10;;;;;;10528237;28;20109;-65
2022/01/10 09:24:21;;;;;;;11.27;6.80;;;6.20;98.00;;;;;;10507104;28;20300;-64
2022/01/10 09:29:23;;;;;;;12.00;6.70;;;6.20;98.00;;;;;;10519468;28;20514;-64
2022/01/10 09:34:24;;;;;;;13.02;6.20;;;6.40;98.00;;;;;;10517111;28;20120;-65
2022/01/10 09:39:25;;;;;;;13.35;7.20;;;6.30;98.00;;;;;;10522013;28;20038;-62
2022/01/10 09:44:26;;;;;;;11.98;6.85;;;6.30;97.90;;;;;;10520420;28;20482;-65
2022/01/10 09:49:27;;;;;;;10.73;6.97;;;6.30;97.90;;;;;;10533949;28;20032;-64
2022/01/10 09:54:27;;;;;;;13.95;7.45;;;6.30;97.90;;;;;;10533959;28;20478;-65
2022/01/10 09:59:29;;;;;;;13.43;7.10;;;6.70;98.00;;;;;;10509474;28;20028;-65
2022/01/10 10:04:33;;;;;;;12.25;7.55;;;6.40;97.90;;;;;;10532507;28;20028;-64
2022/01/10 10:09:34;;;;;;;12.60;7.28;;;6.40;97.80;;;;;;10535399;28;20036;-65
2022/01/10 10:14:36;;;;;;;12.25;7.50;;;6.50;97.80;;;;;;10533505;28;20483;-64
2022/01/10 10:19:37;;;;;;;13.98;7.68;;;6.60;97.80;;;;;;10538219;28;20059;-64
2022/01/10 10:24:38;;;;;;;13.15;8.23;;;6.60;97.70;;;;;;10526056;28;20035;-64
2022/01/10 10:29:39;;;;;;;13.93;7.60;;;6.70;97.60;;;;;;10527705;28;20458;-65
2022/01/10 10:34:39;;;;;;;13.95;7.32;;;6.90;97.60;;;;;;10528175;28;20031;-65
2022/01/10 10:39:43;;;;;;;12.18;7.65;;;6.90;97.60;;;;;;10527960;28;20040;-64
2022/01/10 10:44:44;;;;;;;14.10;8.18;;;6.90;97.50;;;;;;10515059;28;20035;-64
2022/01/10 10:49:50;;;;;;;17.90;8.95;;;7.00;97.50;;;;;;10534625;28;20406;-62
2022/01/10 10:54:51;;;;;;;11.82;7.32;;;7.10;97.50;;;;;;10530458;28;20024;-65
2022/01/10 10:59:52;;;;;;;14.43;7.60;;;7.10;97.50;;;;;;10531278;28;20489;-63
2022/01/10 11:04:53;;;;;;;11.63;7.43;;;7.20;97.50;;;;;;10528871;28;20059;-62
2022/01/10 11:09:54;;;;;;;14.63;8.18;;;7.20;97.40;;;;;;10489354;28;20036;-64
2022/01/10 11:14:56;;;;;;;17.73;9.20;;;7.20;97.40;;;;;;10514401;28;20414;-65
2022/01/10 11:20:23;;;;;;;18.70;8.93;;;7.30;97.40;;;;;;10519689;28;20044;-65
2022/01/10 11:25:27;;;;;;;14.75;7.88;;;7.30;97.30;;;;;;10525116;28;20035;-65
2022/01/10 11:30:38;;;;;;;15.88;7.97;;;7.40;97.40;;;;;;10523888;28;20048;-65
2022/01/10 11:35:43;;;;;;;15.38;8.60;;;7.40;97.40;;;;;;10525726;28;20028;-65
2022/01/10 11:40:56;;;;;;;12.95;8.07;;;7.40;97.40;;;;;;10510741;28;20036;-64
2022/01/10 11:46:12;;;;;;;18.58;8.70;;;7.40;97.40;;;;;;10500949;28;20950;-65
2022/01/10 11:51:31;;;;;;;16.42;8.70;;;7.50;97.40;;;;;;10509355;28;20394;-64
2022/01/10 11:56:33;;;;;;;14.50;7.90;;;7.50;97.40;;;;;;10529377;28;20023;-64
2022/01/10 12:01:35;;;;;;;16.08;8.63;;;7.50;97.40;;;;;;10528884;28;20012;-65
2022/01/10 12:06:37;;;;;;;17.80;8.55;;;7.50;97.50;;;;;;10524071;28;20119;-62
2022/01/10 12:11:40;;;;;;;16.45;9.18;;;7.50;97.50;;;;;;10526946;28;20440;-64
2022/01/10 12:16:42;;;;;;;15.88;8.75;;;7.50;97.50;;;;;;10522013;28;20051;-65
2022/01/10 12:21:43;;;;;;;16.88;9.40;;;7.50;97.60;;;;;;10508631;28;20507;-65
2022/01/10 12:26:44;;;;;;;21.23;8.10;;;7.50;97.60;;;;;;10520082;28;20244;-65
2022/01/10 12:31:47;;;;;;;16.17;8.90;;;7.40;97.60;;;;;;10506232;28;20056;-63
2022/01/10 12:36:48;;;;;;;15.93;9.27;;;7.40;97.70;;;;;;10512471;28;20078;-65
2022/01/10 12:41:50;;;;;;;18.27;8.85;;;7.40;97.70;;;;;;10510713;28;20410;-63
2022/01/10 12:46:52;;;;;;;14.23;8.88;;;7.40;97.70;;;;;;10515013;28;20043;-64
2022/01/10 12:51:55;;;;;;;17.00;9.25;;;7.40;97.80;;;;;;10526924;28;20032;-65
2022/01/10 12:57:00;;;;;;;25.15;9.43;;;7.30;97.80;;;;;;10526914;28;20382;-65
2022/01/10 13:02:03;;;;;;;20.73;9.15;;;7.30;97.90;;;;;;10525132;28;20034;-65
2022/01/10 13:07:06;;;;;;;17.08;9.23;;;7.30;97.90;;;;;;10516625;28;20568;-62
2022/01/10 13:12:28;;;;;;;13.63;8.27;;;7.30;98.00;;;;;;10518677;28;20226;-66
2022/01/10 13:17:29;;;;;;;12.10;8.82;;;7.40;98.00;;;;;;10521364;28;20040;-64
2022/01/10 13:22:38;;;;;;;20.30;9.60;;;7.40;98.00;;;;;;10494041;28;20028;-65
2022/01/10 13:27:39;;;;;;;15.65;9.00;;;7.40;98.10;;;;;;10525072;28;20409;-66
2022/01/10 13:32:42;;;;;;;21.77;9.43;;;7.30;98.10;;;;;;10521631;28;20034;-65
2022/01/10 13:37:59;;;;;;;20.40;9.15;;;7.30;98.10;;;;;;10526136;28;20604;-65
2022/01/10 13:43:04;;;;;;;18.27;10.05;;;7.30;98.20;;;;;;10515157;28;20085;-64
2022/01/10 13:48:05;;;;;;;19.60;10.02;;;7.30;98.20;;;;;;10526145;28;20040;-65
2022/01/10 13:53:14;;;;;;;26.90;12.18;;;7.30;98.30;;;;;;10522886;28;20112;-66
2022/01/10 13:58:26;;;;;;;26.88;11.75;;;7.60;98.70;;;;;;10525011;28;20026;-65
2022/01/10 14:03:33;;;;;;;27.60;12.77;;;7.30;98.80;;;;;;10501399;28;20124;-66
2022/01/10 14:08:35;;;;;;;20.67;11.68;;;7.10;98.70;;;;;;10505772;28;20119;-66
2022/01/10 14:13:36;;;;;;;17.55;10.90;;;7.10;98.70;;;;;;10518910;28;20031;-64
2022/01/10 14:18:37;;;;;;;20.95;10.10;;;7.20;98.70;;;;;;10519921;28;20468;-66
2022/01/10 14:23:39;;;;;;;24.08;11.20;;;7.20;98.80;;;;;;10519394;28;20028;-65
2022/01/10 14:28:41;;;;;;;20.10;10.75;;;7.20;98.70;;;;;;10528684;28;20205;-64
2022/01/10 14:33:42;;;;;;;19.77;10.40;;;7.20;98.90;;;;;;10528049;28;20109;-63
2022/01/10 14:38:43;;;;;;;22.95;11.32;;;7.20;98.90;;;;;;10530418;28;20044;-65
2022/01/10 14:43:43;;;;;;;17.88;10.60;;;7.20;98.70;;;;;;10520477;28;20089;-63
2022/01/10 14:48:45;;;;;;;20.65;9.98;;;7.20;98.80;;;;;;10531797;28;20147;-65
2022/01/10 14:53:45;;;;;;;20.13;10.75;;;7.20;98.80;;;;;;10530315;28;20494;-65
2022/01/10 14:58:47;;;;;;;17.88;10.38;;;7.10;98.80;;;;;;10531705;28;20024;-65
2022/01/10 15:03:48;;;;;;;18.13;10.27;;;7.20;98.80;;;;;;10528018;28;20016;-65
2022/01/10 15:08:49;;;;;;;21.02;10.82;;;7.10;98.80;;;;;;10526884;28;20047;-66
2022/01/10 15:13:50;;;;;;;17.88;10.15;;;7.10;98.80;;;;;;10526807;28;20038;-63
2022/01/10 15:18:51;;;;;;;17.25;10.50;;;7.10;98.90;;;;;;10535651;28;20056;-66
2022/01/10 15:23:52;;;;;;;21.23;11.40;;;7.10;98.90;;;;;;10514794;28;20032;-63
2022/01/10 15:28:53;;;;;;;20.52;11.20;;;7.10;99.00;;;;;;10529827;28;20040;-65
2022/01/10 15:33:54;;;;;;;19.52;10.45;;;7.10;99.00;;;;;;10511774;28;20074;-66
2022/01/10 15:38:55;;;;;;;22.30;11.40;;;7.00;99.00;;;;;;10518816;28;20043;-65
2022/01/10 15:43:57;;;;;;;19.55;11.40;;;7.00;99.00;;;;;;10525791;28;20024;-64
2022/01/10 15:48:58;;;;;;;20.08;10.30;;;7.00;99.00;;;;;;10501121;28;20032;-65
2022/01/10 15:53:58;;;;;;;20.77;10.95;;;7.20;99.10;;;;;;10524427;28;20033;-65
2022/01/10 15:58:59;;;;;;;19.83;11.85;;;7.00;99.20;;;;;;10524362;28;20131;-60
2022/01/10 16:04:00;;;;;;;20.48;11.38;;;7.00;99.20;;;;;;10519119;28;20119;-65
2022/01/10 16:09:02;;;;;;;22.70;11.48;;;7.00;99.20;;;;;;10517281;28;20122;-65
2022/01/10 16:14:03;;;;;;;21.85;11.88;;;6.90;99.20;;;;;;10516900;28;20115;-64
2022/01/10 16:19:04;;;;;;;21.60;12.07;;;6.90;99.20;;;;;;10527680;28;20059;-66
2022/01/10 16:24:05;;;;;;;22.55;12.13;;;6.90;99.20;;;;;;10516597;28;20470;-64
2022/01/10 16:29:06;;;;;;;24.58;12.25;;;6.90;99.30;;;;;;10503237;28;20047;-64
2022/01/10 16:34:07;;;;;;;23.27;12.65;;;6.80;99.30;;;;;;10521897;28;20020;-65
2022/01/10 16:39:08;;;;;;;30.17;14.52;;;6.80;99.30;;;;;;10504148;28;20119;-63
2022/01/10 16:44:09;;;;;;;27.25;13.45;;;6.70;99.30;;;;;;10516843;28;20095;-63
2022/01/10 16:49:10;;;;;;;24.38;13.55;;;6.70;99.30;;;;;;10498251;28;20032;-65
2022/01/10 16:54:11;;;;;;;25.48;14.10;;;6.80;99.20;;;;;;10525480;28;20128;-65
2022/01/10 16:59:12;;;;;;;25.05;13.45;;;6.70;99.20;;;;;;10519759;28;20016;-65
2022/01/10 17:04:12;;;;;;;21.23;13.15;;;6.60;99.20;;;;;;10524289;28;20099;-62
2022/01/10 17:09:13;;;;;;;23.77;13.60;;;6.60;99.10;;;;;;10516450;28;20339;-64
2022/01/10 17:14:14;;;;;;;23.65;13.18;;;6.50;99.30;;;;;;10495960;28;20045;-65
2022/01/10 17:19:15;;;;;;;25.55;13.48;;;6.70;99.10;;;;;;10509687;28;20079;-65
2022/01/10 17:24:16;;;;;;;25.48;13.48;;;6.50;99.00;;;;;;10515008;28;20071;-65
2022/01/10 17:29:18;;;;;;;21.17;12.88;;;6.60;99.00;;;;;;10521936;28;20440;-65
2022/01/10 17:34:18;;;;;;;23.92;13.35;;;6.80;99.00;;;;;;10527979;28;20493;-64
2022/01/10 17:39:19;;;;;;;21.77;12.40;;;6.50;98.90;;;;;;10524172;28;20024;-64
2022/01/10 17:44:20;;;;;;;23.40;13.45;;;6.50;98.80;;;;;;10509567;28;20406;-63
2022/01/10 17:49:27;;;;;;;19.83;11.65;;;6.50;98.80;;;;;;10522485;28;20043;-64
2022/01/10 17:54:29;;;;;;;19.98;12.10;;;6.50;98.80;;;;;;10521653;28;20020;-64
2022/01/10 17:59:29;;;;;;;20.15;12.30;;;6.50;98.80;;;;;;10510179;28;20033;-63
2022/01/10 18:04:30;;;;;;;22.05;12.45;;;6.40;98.70;;;;;;10498705;28;20135;-63
2022/01/10 18:09:34;;;;;;;21.15;12.65;;;6.40;98.70;;;;;;10528329;28;20035;-69
2022/01/10 18:14:35;;;;;;;19.70;11.63;;;6.40;98.70;;;;;;10534478;28;20027;-70
2022/01/10 18:19:36;;;;;;;18.88;10.40;;;6.40;98.70;;;;;;10533073;28;20813;-65
2022/01/10 18:24:37;;;;;;;21.17;11.98;;;7.70;99.00;;;;;;10529361;28;20111;-62
2022/01/10 18:29:38;;;;;;;22.65;11.70;;;6.30;98.70;;;;;;10528038;28;20058;-65
2022/01/10 18:34:38;;;;;;;23.00;11.90;;;6.30;98.60;;;;;;10528007;28;20049;-61
2022/01/10 18:39:39;;;;;;;18.83;11.30;;;6.30;98.60;;;;;;10521905;28;20036;-64
2022/01/10 18:44:40;;;;;;;19.17;10.95;;;6.30;98.60;;;;;;10514577;28;20023;-72
2022/01/10 18:49:41;;;;;;;19.08;10.70;;;6.30;98.60;;;;;;10525534;28;20040;-69
2022/01/10 18:54:42;;;;;;;20.25;11.85;;;6.30;98.90;;;;;;10527437;28;20316;-69
2022/01/10 18:59:42;;;;;;;19.05;10.90;;;6.30;98.60;;;;;;10520397;28;20040;-68
2022/01/10 19:04:43;;;;;;;17.88;10.95;;;6.30;98.60;;;;;;10503093;28;20035;-66
2022/01/10 19:09:44;;;;;;;19.30;11.45;;;6.30;98.60;;;;;;10511749;28;20143;-68
2022/01/10 19:14:45;;;;;;;18.38;10.85;;;6.20;98.50;;;;;;10502318;28;20513;-67
2022/01/10 19:19:46;;;;;;;16.33;10.48;;;6.30;98.60;;;;;;10512370;28;20061;-72
2022/01/10 19:24:47;;;;;;;17.58;10.23;;;6.20;98.50;;;;;;10518170;28;20533;-72
2022/01/10 19:29:48;;;;;;;18.17;11.52;;;6.20;98.50;;;;;;10525205;28;20043;-69
2022/01/10 19:34:49;;;;;;;19.17;10.80;;;6.20;98.50;;;;;;10513505;28;20065;-68
2022/01/10 19:39:50;;;;;;;17.67;11.05;;;6.10;98.50;;;;;;10512108;28;20028;-68
2022/01/10 19:44:51;;;;;;;17.10;10.32;;;6.20;98.50;;;;;;10515415;28;20016;-69
2022/01/10 19:49:51;;;;;;;17.73;11.35;;;6.10;98.50;;;;;;10506783;28;20032;-69
2022/01/10 19:54:52;;;;;;;18.40;10.45;;;6.10;98.40;;;;;;10514353;28;20038;-69
2022/01/10 19:59:56;;;;;;;16.67;10.63;;;6.10;98.40;;;;;;10519183;28;20958;-71
2022/01/10 20:04:57;;;;;;;15.18;9.57;;;6.10;98.40;;;;;;10507517;28;20024;-68
2022/01/10 20:09:59;;;;;;;15.50;9.38;;;6.10;98.40;;;;;;10510745;28;20470;-72
2022/01/10 20:14:59;;;;;;;16.65;9.70;;;6.10;98.40;;;;;;10508818;28;20137;-67
2022/01/10 20:20:00;;;;;;;15.70;9.85;;;6.00;98.40;;;;;;10514946;28;20056;-69
2022/01/10 20:25:02;;;;;;;13.35;8.73;;;6.00;98.30;;;;;;10509550;28;20117;-69
2022/01/10 20:30:04;;;;;;;14.32;9.35;;;6.00;98.30;;;;;;10506425;28;20038;-69
2022/01/10 20:35:06;;;;;;;15.43;8.73;;;6.00;98.30;;;;;;10507467;28;20041;-67
2022/01/10 20:40:08;;;;;;;14.57;8.63;;;6.00;98.30;;;;;;10506425;28;20954;-69
2022/01/10 20:45:09;;;;;;;14.00;8.50;;;6.00;98.30;;;;;;10517260;28;20439;-70
2022/01/10 20:50:10;;;;;;;14.02;8.90;;;6.00;98.30;;;;;;10510345;28;20028;-68
2022/01/10 20:55:11;;;;;;;14.45;9.65;;;6.00;98.20;;;;;;10510908;28;20032;-68
2022/01/10 21:00:13;;;;;;;17.95;9.20;;;6.00;98.20;;;;;;10503049;28;20433;-69
2022/01/10 21:05:14;;;;;;;15.00;8.60;;;5.90;98.20;;;;;;10500478;28;20040;-69
2022/01/10 21:10:18;;;;;;;15.52;9.07;;;6.00;98.20;;;;;;10504072;28;20031;-70
2022/01/10 21:15:19;;;;;;;15.25;8.50;;;5.90;98.20;;;;;;10500918;28;20327;-69
2022/01/10 21:20:20;;;;;;;12.50;7.93;;;5.90;98.20;;;;;;10466730;28;20060;-69
2022/01/10 21:25:21;;;;;;;14.40;8.18;;;6.00;98.20;;;;;;10467269;28;20121;-67
2022/01/10 21:30:26;;;;;;;13.70;7.82;;;5.90;98.20;;;;;;10466688;28;20183;-69
2022/01/10 21:35:27;;;;;;;15.70;8.35;;;5.90;98.20;;;;;;10466084;28;20158;-68
2022/01/10 21:40:28;;;;;;;15.77;8.65;;;5.90;98.20;;;;;;10470297;28;20186;-69
2022/01/10 21:45:29;;;;;;;12.10;7.85;;;5.90;98.10;;;;;;10475114;28;20037;-68
2022/01/10 21:50:31;;;;;;;14.23;7.28;;;5.90;98.10;;;;;;10455962;28;20033;-68
2022/01/10 21:55:32;;;;;;;14.57;7.75;;;5.80;98.10;;;;;;10471103;28;20033;-67
2022/01/10 22:00:33;;;;;;;13.35;8.00;;;5.90;98.10;;;;;;10475347;28;20095;-70
2022/01/10 22:05:34;;;;;;;12.50;7.40;;;5.80;98.00;;;;;;10448222;28;20112;-67
2022/01/10 22:10:36;;;;;;;14.60;8.20;;;5.80;98.00;;;;;;10472594;28;20202;-69
2022/01/10 22:15:37;;;;;;;12.60;7.65;;;5.80;98.00;;;;;;10472051;28;20013;-69
2022/01/10 22:20:37;;;;;;;12.75;7.50;;;5.80;98.00;;;;;;10510631;28;20144;-69
2022/01/10 22:25:38;;;;;;;15.15;8.07;;;5.80;98.00;;;;;;10516797;28;20020;-68
2022/01/10 22:30:39;;;;;;;11.45;7.57;;;5.70;98.00;;;;;;10512329;28;20139;-67
2022/01/10 22:35:40;;;;;;;11.32;7.15;;;5.70;97.90;;;;;;10519801;28;20024;-67
2022/01/10 22:40:41;;;;;;;12.13;7.35;;;5.70;97.90;;;;;;10505452;28;20028;-68
2022/01/10 22:45:42;;;;;;;12.90;7.80;;;5.70;97.90;;;;;;10517240;28;20059;-67
2022/01/10 22:50:43;;;;;;;12.02;7.25;;;5.70;97.90;;;;;;10512571;28;20160;-67
2022/01/10 22:55:44;;;;;;;10.07;6.97;;;5.70;97.90;;;;;;10512270;28;20489;-67
2022/01/10 23:00:45;;;;;;;11.55;7.13;;;5.70;97.90;;;;;;10514564;28;20052;-69
2022/01/10 23:05:46;;;;;;;11.75;6.93;;;5.70;97.90;;;;;;10532999;28;20510;-68
2022/01/10 23:10:47;;;;;;;12.93;7.03;;;5.70;97.80;;;;;;10523037;28;20057;-66
2022/01/10 23:15:48;;;;;;;12.43;7.10;;;5.70;97.80;;;;;;10537635;28;20028;-67
2022/01/10 23:20:48;;;;;;;10.45;6.63;;;5.60;97.80;;;;;;10519407;28;20074;-67
2022/01/10 23:25:51;;;;;;;11.85;7.15;;;5.60;98.00;;;;;;10516980;28;20051;-67
2022/01/10 23:30:54;;;;;;;11.85;7.45;;;5.60;97.70;;;;;;10530628;28;20054;-68
2022/01/10 23:35:56;;;;;;;11.40;6.85;;;6.20;97.80;;;;;;10522154;28;20032;-66
2022/01/10 23:40:56;;;;;;;11.35;7.15;;;5.60;97.70;;;;;;10522239;28;20032;-67
2022/01/10 23:45:57;;;;;;;11.55;6.45;;;5.60;97.60;;;;;;10529654;28;20031;-67
2022/01/10 23:50:58;;;;;;;12.07;7.28;;;5.60;97.60;;;;;;10525876;28;20505;-67
2022/01/10 23:55:59;;;;;;;10.60;6.75;;;5.60;97.60;;;;;;10529441;28;20021;-67
